sensor_id;sensor_type;location;lat;lon;timestamp;P1;durP1;ratioP1;P2;durP2;ratioP2
40537;SDS011;27925;41.874;12.526;2023-01-30T00:01:33;23.27;;;14.30;;
40537;SDS011;27925;41.874;12.526;2023-01-30T00:03:59;23.17;;;14.30;;
40537;SDS011;27925;41.874;12.526;2023-01-30T00:06:25;24.63;;;14.20;;
40537;SDS011;27925;41.874;12.526;2023-01-30T00:08:51;20.98;;;14.05;;
40537;SDS011;27925;41.874;12.526;2023-01-30T00:11:17;20.13;;;13.65;;
40537;SDS011;27925;41.874;12.526;2023-01-30T00:13:45;22.38;;;14.20;;
40537;SDS011;27925;41.874;12.526;2023-01-30T00:16:12;21.17;;;14.07;;
40537;SDS011;27925;41.874;12.526;2023-01-30T00:18:39;23.20;;;14.55;;
40537;SDS011;27925;41.874;12.526;2023-01-30T00:21:06;24.92;;;13.95;;
40537;SDS011;27925;41.874;12.526;2023-01-30T00:23:33;19.63;;;13.63;;
40537;SDS011;27925;41.874;12.526;2023-01-30T00:25:59;20.33;;;14.02;;
40537;SDS011;27925;41.874;12.526;2023-01-30T00:28:25;20.77;;;13.25;;
40537;SDS011;27925;41.874;12.526;2023-01-30T00:30:51;21.15;;;13.77;;
40537;SDS011;27925;41.874;12.526;2023-01-30T00:33:17;21.38;;;14.13;;
40537;SDS011;27925;41.874;12.526;2023-01-30T00:35:45;21.85;;;13.50;;
40537;SDS011;27925;41.874;12.526;2023-01-30T00:38:12;21.23;;;13.02;;
40537;SDS011;27925;41.874;12.526;2023-01-30T00:40:38;19.95;;;13.43;;
40537;SDS011;27925;41.874;12.526;2023-01-30T00:43:04;20.25;;;12.95;;
40537;SDS011;27925;41.874;12.526;2023-01-30T00:45:48;20.88;;;13.60;;
40537;SDS011;27925;41.874;12.526;2023-01-30T00:48:35;20.90;;;13.13;;
40537;SDS011;27925;41.874;12.526;2023-01-30T00:51:00;18.48;;;12.90;;
40537;SDS011;27925;41.874;12.526;2023-01-30T00:53:26;19.45;;;12.63;;
40537;SDS011;27925;41.874;12.526;2023-01-30T00:55:52;21.58;;;13.32;;
40537;SDS011;27925;41.874;12.526;2023-01-30T00:58:19;17.98;;;12.25;;
40537;SDS011;27925;41.874;12.526;2023-01-30T01:00:45;17.02;;;12.70;;
40537;SDS011;27925;41.874;12.526;2023-01-30T01:03:11;19.27;;;12.43;;
40537;SDS011;27925;41.874;12.526;2023-01-30T01:05:37;17.83;;;11.98;;
40537;SDS011;27925;41.874;12.526;2023-01-30T01:08:03;20.13;;;12.07;;
40537;SDS011;27925;41.874;12.526;2023-01-30T01:10:29;19.23;;;12.15;;
40537;SDS011;27925;41.874;12.526;2023-01-30T01:12:55;17.33;;;10.90;;
40537;SDS011;27925;41.874;12.526;2023-01-30T01:15:21;16.75;;;11.35;;
40537;SDS011;27925;41.874;12.526;2023-01-30T01:17:48;19.20;;;11.82;;
40537;SDS011;27925;41.874;12.526;2023-01-30T01:20:14;17.92;;;11.82;;
40537;SDS011;27925;41.874;12.526;2023-01-30T01:22:41;17.70;;;11.70;;
40537;SDS011;27925;41.874;12.526;2023-01-30T01:25:07;18.38;;;12.32;;
40537;SDS011;27925;41.874;12.526;2023-01-30T01:27:34;18.40;;;11.63;;
40537;SDS011;27925;41.874;12.526;2023-01-30T01:30:00;15.77;;;11.18;;
40537;SDS011;27925;41.874;12.526;2023-01-30T01:32:26;19.38;;;12.15;;
40537;SDS011;27925;41.874;12.526;2023-01-30T01:34:52;17.48;;;11.23;;
40537;SDS011;27925;41.874;12.526;2023-01-30T01:37:17;18.45;;;11.65;;
40537;SDS011;27925;41.874;12.526;2023-01-30T01:39:43;16.48;;;11.10;;
40537;SDS011;27925;41.874;12.526;2023-01-30T01:42:34;16.27;;;10.93;;
40537;SDS011;27925;41.874;12.526;2023-01-30T01:45:03;19.85;;;11.30;;
40537;SDS011;27925;41.874;12.526;2023-01-30T01:47:33;18.45;;;11.45;;
40537;SDS011;27925;41.874;12.526;2023-01-30T01:49:59;20.30;;;11.05;;
40537;SDS011;27925;41.874;12.526;2023-01-30T01:52:26;20.10;;;10.85;;
40537;SDS011;27925;41.874;12.526;2023-01-30T02:43:37;20.10;;;12.85;;
40537;SDS011;27925;41.874;12.526;2023-01-30T02:46:33;24.67;;;13.27;;
40537;SDS011;27925;41.874;12.526;2023-01-30T02:51:47;17.30;;;11.00;;
40537;SDS011;27925;41.874;12.526;2023-01-30T02:54:14;23.00;;;14.27;;
40537;SDS011;27925;41.874;12.526;2023-01-30T02:56:44;16.08;;;10.38;;
40537;SDS011;27925;41.874;12.526;2023-01-30T02:59:10;21.30;;;13.13;;
40537;SDS011;27925;41.874;12.526;2023-01-30T03:01:49;19.10;;;11.50;;
40537;SDS011;27925;41.874;12.526;2023-01-30T03:04:47;17.88;;;11.45;;
40537;SDS011;27925;41.874;12.526;2023-01-30T03:15:40;27.52;;;13.05;;
40537;SDS011;27925;41.874;12.526;2023-01-30T03:18:11;16.10;;;10.65;;
40537;SDS011;27925;41.874;12.526;2023-01-30T03:20:38;20.67;;;13.75;;
40537;SDS011;27925;41.874;12.526;2023-01-30T03:23:05;17.65;;;10.75;;
40537;SDS011;27925;41.874;12.526;2023-01-30T03:25:32;20.30;;;13.15;;
40537;SDS011;27925;41.874;12.526;2023-01-30T03:28:00;16.42;;;11.13;;
40537;SDS011;27925;41.874;12.526;2023-01-30T03:30:27;17.98;;;11.15;;
40537;SDS011;27925;41.874;12.526;2023-01-30T03:32:53;19.00;;;11.50;;
40537;SDS011;27925;41.874;12.526;2023-01-30T03:35:19;19.45;;;11.38;;
40537;SDS011;27925;41.874;12.526;2023-01-30T03:37:45;18.50;;;11.73;;
40537;SDS011;27925;41.874;12.526;2023-01-30T03:40:12;19.52;;;13.27;;
40537;SDS011;27925;41.874;12.526;2023-01-30T03:42:38;16.25;;;11.00;;
40537;SDS011;27925;41.874;12.526;2023-01-30T03:45:04;16.35;;;10.57;;
40537;SDS011;27925;41.874;12.526;2023-01-30T03:47:31;20.20;;;12.88;;
40537;SDS011;27925;41.874;12.526;2023-01-30T03:49:56;17.30;;;11.30;;
40537;SDS011;27925;41.874;12.526;2023-01-30T03:52:22;23.63;;;14.13;;
40537;SDS011;27925;41.874;12.526;2023-01-30T03:54:48;18.67;;;11.65;;
40537;SDS011;27925;41.874;12.526;2023-01-30T03:57:13;22.45;;;14.40;;
40537;SDS011;27925;41.874;12.526;2023-01-30T03:59:39;19.27;;;12.10;;
40537;SDS011;27925;41.874;12.526;2023-01-30T04:02:05;22.95;;;14.40;;
40537;SDS011;27925;41.874;12.526;2023-01-30T04:04:30;22.77;;;14.30;;
40537;SDS011;27925;41.874;12.526;2023-01-30T04:06:56;16.35;;;11.45;;
40537;SDS011;27925;41.874;12.526;2023-01-30T04:09:22;25.60;;;14.90;;
40537;SDS011;27925;41.874;12.526;2023-01-30T04:11:47;17.60;;;12.05;;
40537;SDS011;27925;41.874;12.526;2023-01-30T04:14:13;23.48;;;14.38;;
40537;SDS011;27925;41.874;12.526;2023-01-30T04:16:39;20.85;;;12.48;;
40537;SDS011;27925;41.874;12.526;2023-01-30T04:19:05;22.27;;;13.93;;
40537;SDS011;27925;41.874;12.526;2023-01-30T04:21:30;18.00;;;11.77;;
40537;SDS011;27925;41.874;12.526;2023-01-30T04:23:56;23.75;;;14.68;;
40537;SDS011;27925;41.874;12.526;2023-01-30T04:26:22;18.00;;;12.57;;
40537;SDS011;27925;41.874;12.526;2023-01-30T04:28:47;21.65;;;14.25;;
40537;SDS011;27925;41.874;12.526;2023-01-30T04:31:13;19.60;;;12.57;;
40537;SDS011;27925;41.874;12.526;2023-01-30T04:33:39;18.95;;;12.73;;
40537;SDS011;27925;41.874;12.526;2023-01-30T04:36:05;21.70;;;14.10;;
40537;SDS011;27925;41.874;12.526;2023-01-30T04:38:33;20.67;;;12.05;;
40537;SDS011;27925;41.874;12.526;2023-01-30T04:41:00;23.60;;;15.27;;
40537;SDS011;27925;41.874;12.526;2023-01-30T04:43:26;19.13;;;11.63;;
40537;SDS011;27925;41.874;12.526;2023-01-30T04:45:53;22.42;;;14.75;;
40537;SDS011;27925;41.874;12.526;2023-01-30T04:48:19;18.88;;;12.18;;
40537;SDS011;27925;41.874;12.526;2023-01-30T04:50:48;22.92;;;14.38;;
40537;SDS011;27925;41.874;12.526;2023-01-30T04:53:15;19.45;;;13.25;;
40537;SDS011;27925;41.874;12.526;2023-01-30T04:55:42;23.05;;;14.52;;
40537;SDS011;27925;41.874;12.526;2023-01-30T04:58:08;19.65;;;12.82;;
40537;SDS011;27925;41.874;12.526;2023-01-30T05:00:34;23.10;;;14.07;;
40537;SDS011;27925;41.874;12.526;2023-01-30T05:02:59;23.73;;;12.10;;
40537;SDS011;27925;41.874;12.526;2023-01-30T05:05:25;23.95;;;14.98;;
40537;SDS011;27925;41.874;12.526;2023-01-30T05:07:52;20.05;;;12.98;;
40537;SDS011;27925;41.874;12.526;2023-01-30T05:10:18;23.63;;;14.93;;
40537;SDS011;27925;41.874;12.526;2023-01-30T05:12:44;20.05;;;12.43;;
40537;SDS011;27925;41.874;12.526;2023-01-30T05:15:11;22.35;;;14.93;;
40537;SDS011;27925;41.874;12.526;2023-01-30T05:17:37;24.25;;;16.00;;
40537;SDS011;27925;41.874;12.526;2023-01-30T05:20:04;18.95;;;12.73;;
40537;SDS011;27925;41.874;12.526;2023-01-30T05:22:31;25.10;;;14.45;;
40537;SDS011;27925;41.874;12.526;2023-01-30T05:24:56;23.77;;;14.98;;
40537;SDS011;27925;41.874;12.526;2023-01-30T05:27:22;19.92;;;12.77;;
40537;SDS011;27925;41.874;12.526;2023-01-30T05:29:48;24.90;;;14.85;;
40537;SDS011;27925;41.874;12.526;2023-01-30T05:32:14;19.05;;;12.68;;
40537;SDS011;27925;41.874;12.526;2023-01-30T05:34:41;22.60;;;14.20;;
40537;SDS011;27925;41.874;12.526;2023-01-30T05:37:07;22.33;;;14.82;;
40537;SDS011;27925;41.874;12.526;2023-01-30T05:39:33;23.23;;;13.05;;
40537;SDS011;27925;41.874;12.526;2023-01-30T05:41:58;24.67;;;16.33;;
40537;SDS011;27925;41.874;12.526;2023-01-30T05:44:24;18.23;;;11.32;;
40537;SDS011;27925;41.874;12.526;2023-01-30T05:46:50;25.23;;;14.27;;
40537;SDS011;27925;41.874;12.526;2023-01-30T05:49:15;17.60;;;11.48;;
40537;SDS011;27925;41.874;12.526;2023-01-30T05:51:41;24.65;;;14.80;;
40537;SDS011;27925;41.874;12.526;2023-01-30T05:54:07;23.10;;;14.13;;
40537;SDS011;27925;41.874;12.526;2023-01-30T05:56:33;21.48;;;14.35;;
40537;SDS011;27925;41.874;12.526;2023-01-30T05:58:59;22.10;;;13.52;;
40537;SDS011;27925;41.874;12.526;2023-01-30T06:01:25;23.27;;;14.10;;
40537;SDS011;27925;41.874;12.526;2023-01-30T06:03:52;19.58;;;12.57;;
40537;SDS011;27925;41.874;12.526;2023-01-30T06:06:18;22.00;;;13.23;;
40537;SDS011;27925;41.874;12.526;2023-01-30T06:08:45;23.42;;;15.02;;
40537;SDS011;27925;41.874;12.526;2023-01-30T06:11:12;25.85;;;14.15;;
40537;SDS011;27925;41.874;12.526;2023-01-30T06:13:39;23.52;;;14.27;;
40537;SDS011;27925;41.874;12.526;2023-01-30T06:16:06;22.23;;;15.27;;
40537;SDS011;27925;41.874;12.526;2023-01-30T06:18:34;27.33;;;14.60;;
40537;SDS011;27925;41.874;12.526;2023-01-30T06:21:00;18.88;;;12.13;;
40537;SDS011;27925;41.874;12.526;2023-01-30T06:23:26;22.67;;;15.05;;
40537;SDS011;27925;41.874;12.526;2023-01-30T06:25:52;22.83;;;14.68;;
40537;SDS011;27925;41.874;12.526;2023-01-30T06:28:18;24.10;;;15.18;;
40537;SDS011;27925;41.874;12.526;2023-01-30T06:30:44;20.73;;;13.82;;
40537;SDS011;27925;41.874;12.526;2023-01-30T06:33:10;22.45;;;15.13;;
40537;SDS011;27925;41.874;12.526;2023-01-30T06:35:36;23.25;;;14.60;;
40537;SDS011;27925;41.874;12.526;2023-01-30T06:38:02;23.00;;;14.77;;
40537;SDS011;27925;41.874;12.526;2023-01-30T06:40:29;23.58;;;15.50;;
40537;SDS011;27925;41.874;12.526;2023-01-30T06:42:54;23.50;;;15.82;;
40537;SDS011;27925;41.874;12.526;2023-01-30T06:45:20;22.88;;;15.40;;
40537;SDS011;27925;41.874;12.526;2023-01-30T06:47:46;27.27;;;16.05;;
40537;SDS011;27925;41.874;12.526;2023-01-30T06:50:17;29.65;;;15.50;;
40537;SDS011;27925;41.874;12.526;2023-01-30T06:52:44;21.15;;;12.63;;
40537;SDS011;27925;41.874;12.526;2023-01-30T06:55:12;25.25;;;15.65;;
40537;SDS011;27925;41.874;12.526;2023-01-30T06:57:39;21.60;;;12.98;;
40537;SDS011;27925;41.874;12.526;2023-01-30T07:00:07;24.55;;;15.43;;
40537;SDS011;27925;41.874;12.526;2023-01-30T07:02:38;26.25;;;14.90;;
40537;SDS011;27925;41.874;12.526;2023-01-30T07:05:05;18.55;;;11.77;;
40537;SDS011;27925;41.874;12.526;2023-01-30T07:07:32;26.70;;;15.20;;
40537;SDS011;27925;41.874;12.526;2023-01-30T07:09:58;19.95;;;11.27;;
40537;SDS011;27925;41.874;12.526;2023-01-30T07:12:24;22.65;;;14.10;;
40537;SDS011;27925;41.874;12.526;2023-01-30T07:14:51;18.55;;;11.68;;
40537;SDS011;27925;41.874;12.526;2023-01-30T07:17:18;19.40;;;11.27;;
40537;SDS011;27925;41.874;12.526;2023-01-30T07:19:44;22.40;;;11.80;;
40537;SDS011;27925;41.874;12.526;2023-01-30T07:22:10;30.60;;;16.02;;
40537;SDS011;27925;41.874;12.526;2023-01-30T07:24:36;24.42;;;13.20;;
40537;SDS011;27925;41.874;12.526;2023-01-30T07:27:05;23.30;;;13.13;;
40537;SDS011;27925;41.874;12.526;2023-01-30T07:29:33;25.85;;;13.60;;
40537;SDS011;27925;41.874;12.526;2023-01-30T07:32:00;25.98;;;12.80;;
40537;SDS011;27925;41.874;12.526;2023-01-30T07:34:26;23.92;;;12.10;;
40537;SDS011;27925;41.874;12.526;2023-01-30T07:36:52;20.90;;;11.50;;
40537;SDS011;27925;41.874;12.526;2023-01-30T07:39:17;21.67;;;12.00;;
40537;SDS011;27925;41.874;12.526;2023-01-30T07:41:43;20.83;;;12.13;;
40537;SDS011;27925;41.874;12.526;2023-01-30T07:44:08;18.52;;;12.30;;
40537;SDS011;27925;41.874;12.526;2023-01-30T07:46:34;23.05;;;12.00;;
40537;SDS011;27925;41.874;12.526;2023-01-30T07:49:01;22.80;;;12.30;;
40537;SDS011;27925;41.874;12.526;2023-01-30T07:51:27;19.90;;;11.73;;
40537;SDS011;27925;41.874;12.526;2023-01-30T07:53:53;21.90;;;12.52;;
40537;SDS011;27925;41.874;12.526;2023-01-30T07:56:19;23.13;;;12.65;;
40537;SDS011;27925;41.874;12.526;2023-01-30T07:58:47;27.75;;;12.65;;
40537;SDS011;27925;41.874;12.526;2023-01-30T08:01:16;26.00;;;12.45;;
40537;SDS011;27925;41.874;12.526;2023-01-30T08:03:42;19.17;;;12.38;;
40537;SDS011;27925;41.874;12.526;2023-01-30T08:06:10;23.58;;;14.20;;
40537;SDS011;27925;41.874;12.526;2023-01-30T08:08:36;22.02;;;12.60;;
40537;SDS011;27925;41.874;12.526;2023-01-30T08:11:02;22.25;;;12.60;;
40537;SDS011;27925;41.874;12.526;2023-01-30T08:13:28;18.02;;;12.20;;
40537;SDS011;27925;41.874;12.526;2023-01-30T08:15:53;22.70;;;13.20;;
40537;SDS011;27925;41.874;12.526;2023-01-30T08:18:19;20.83;;;12.30;;
40537;SDS011;27925;41.874;12.526;2023-01-30T08:20:45;19.45;;;12.30;;
40537;SDS011;27925;41.874;12.526;2023-01-30T08:23:10;20.60;;;12.45;;
40537;SDS011;27925;41.874;12.526;2023-01-30T08:25:36;22.83;;;13.02;;
40537;SDS011;27925;41.874;12.526;2023-01-30T08:28:03;22.98;;;12.13;;
40537;SDS011;27925;41.874;12.526;2023-01-30T08:30:29;22.10;;;12.00;;
40537;SDS011;27925;41.874;12.526;2023-01-30T08:32:56;21.40;;;12.38;;
40537;SDS011;27925;41.874;12.526;2023-01-30T08:35:22;23.42;;;13.68;;
40537;SDS011;27925;41.874;12.526;2023-01-30T08:37:48;18.90;;;12.52;;
40537;SDS011;27925;41.874;12.526;2023-01-30T08:40:13;24.77;;;12.80;;
40537;SDS011;27925;41.874;12.526;2023-01-30T08:42:39;37.55;;;14.70;;
40537;SDS011;27925;41.874;12.526;2023-01-30T08:45:09;39.47;;;12.98;;
40537;SDS011;27925;41.874;12.526;2023-01-30T08:47:35;30.30;;;13.80;;
40537;SDS011;27925;41.874;12.526;2023-01-30T08:50:01;23.95;;;12.48;;
40537;SDS011;27925;41.874;12.526;2023-01-30T08:52:27;20.15;;;11.95;;
40537;SDS011;27925;41.874;12.526;2023-01-30T08:54:53;26.40;;;13.00;;
40537;SDS011;27925;41.874;12.526;2023-01-30T08:57:18;23.60;;;12.38;;
40537;SDS011;27925;41.874;12.526;2023-01-30T08:59:44;19.73;;;13.50;;
40537;SDS011;27925;41.874;12.526;2023-01-30T09:02:10;24.10;;;13.40;;
40537;SDS011;27925;41.874;12.526;2023-01-30T09:04:37;28.05;;;13.50;;
40537;SDS011;27925;41.874;12.526;2023-01-30T09:07:03;22.88;;;12.57;;
40537;SDS011;27925;41.874;12.526;2023-01-30T09:09:28;19.42;;;12.65;;
40537;SDS011;27925;41.874;12.526;2023-01-30T09:11:54;23.77;;;12.85;;
40537;SDS011;27925;41.874;12.526;2023-01-30T09:14:20;20.67;;;12.93;;
40537;SDS011;27925;41.874;12.526;2023-01-30T09:16:46;25.77;;;14.20;;
40537;SDS011;27925;41.874;12.526;2023-01-30T09:19:19;21.30;;;13.77;;
40537;SDS011;27925;41.874;12.526;2023-01-30T09:21:47;20.27;;;12.55;;
40537;SDS011;27925;41.874;12.526;2023-01-30T09:24:13;21.83;;;13.15;;
40537;SDS011;27925;41.874;12.526;2023-01-30T09:26:39;20.45;;;12.88;;
40537;SDS011;27925;41.874;12.526;2023-01-30T09:29:09;19.15;;;11.75;;
40537;SDS011;27925;41.874;12.526;2023-01-30T09:31:38;23.20;;;12.20;;
40537;SDS011;27925;41.874;12.526;2023-01-30T09:34:04;19.65;;;12.90;;
40537;SDS011;27925;41.874;12.526;2023-01-30T09:36:30;18.95;;;12.25;;
40537;SDS011;27925;41.874;12.526;2023-01-30T09:38:55;20.80;;;12.77;;
40537;SDS011;27925;41.874;12.526;2023-01-30T09:49:52;19.40;;;12.00;;
40537;SDS011;27925;41.874;12.526;2023-01-30T09:52:45;20.42;;;12.57;;
40537;SDS011;27925;41.874;12.526;2023-01-30T09:55:17;19.10;;;12.68;;
40537;SDS011;27925;41.874;12.526;2023-01-30T09:57:46;17.70;;;12.52;;
40537;SDS011;27925;41.874;12.526;2023-01-30T10:05:51;20.83;;;12.07;;
40537;SDS011;27925;41.874;12.526;2023-01-30T10:16:17;23.50;;;12.07;;
40537;SDS011;27925;41.874;12.526;2023-01-30T10:27:30;20.23;;;12.07;;
40537;SDS011;27925;41.874;12.526;2023-01-30T10:29:58;19.27;;;11.63;;
40537;SDS011;27925;41.874;12.526;2023-01-30T10:35:38;21.27;;;12.27;;
40537;SDS011;27925;41.874;12.526;2023-01-30T10:38:11;17.95;;;11.90;;
40537;SDS011;27925;41.874;12.526;2023-01-30T10:44:11;19.50;;;12.48;;
40537;SDS011;27925;41.874;12.526;2023-01-30T10:49:43;17.88;;;11.07;;
40537;SDS011;27925;41.874;12.526;2023-01-30T11:00:42;18.88;;;12.00;;
40537;SDS011;27925;41.874;12.526;2023-01-30T11:05:50;19.67;;;11.85;;
40537;SDS011;27925;41.874;12.526;2023-01-30T11:08:22;20.00;;;11.27;;
40537;SDS011;27925;41.874;12.526;2023-01-30T11:10:50;19.48;;;11.43;;
40537;SDS011;27925;41.874;12.526;2023-01-30T11:13:18;21.92;;;12.35;;
40537;SDS011;27925;41.874;12.526;2023-01-30T11:15:52;17.55;;;12.20;;
40537;SDS011;27925;41.874;12.526;2023-01-30T11:18:20;21.05;;;12.13;;
40537;SDS011;27925;41.874;12.526;2023-01-30T11:21:07;20.10;;;11.27;;
40537;SDS011;27925;41.874;12.526;2023-01-30T11:23:46;19.73;;;11.52;;
40537;SDS011;27925;41.874;12.526;2023-01-30T11:26:32;19.55;;;12.23;;
40537;SDS011;27925;41.874;12.526;2023-01-30T11:28:59;18.98;;;13.07;;
40537;SDS011;27925;41.874;12.526;2023-01-30T11:31:50;17.52;;;11.90;;
40537;SDS011;27925;41.874;12.526;2023-01-30T11:34:17;19.00;;;11.95;;
40537;SDS011;27925;41.874;12.526;2023-01-30T11:36:45;19.15;;;11.68;;
40537;SDS011;27925;41.874;12.526;2023-01-30T11:41:40;20.73;;;12.52;;
40537;SDS011;27925;41.874;12.526;2023-01-30T11:44:08;20.70;;;12.82;;
40537;SDS011;27925;41.874;12.526;2023-01-30T11:46:35;18.85;;;12.60;;
40537;SDS011;27925;41.874;12.526;2023-01-30T11:49:15;18.83;;;12.02;;
40537;SDS011;27925;41.874;12.526;2023-01-30T11:51:45;20.67;;;12.18;;
40537;SDS011;27925;41.874;12.526;2023-01-30T11:54:18;20.55;;;11.27;;
40537;SDS011;27925;41.874;12.526;2023-01-30T11:56:49;17.17;;;11.63;;
40537;SDS011;27925;41.874;12.526;2023-01-30T12:01:52;18.77;;;11.95;;
40537;SDS011;27925;41.874;12.526;2023-01-30T12:04:45;18.70;;;11.35;;
40537;SDS011;27925;41.874;12.526;2023-01-30T12:07:22;16.40;;;11.10;;
40537;SDS011;27925;41.874;12.526;2023-01-30T12:09:50;16.92;;;11.60;;
40537;SDS011;27925;41.874;12.526;2023-01-30T12:12:36;18.55;;;10.30;;
40537;SDS011;27925;41.874;12.526;2023-01-30T12:15:15;15.05;;;10.07;;
40537;SDS011;27925;41.874;12.526;2023-01-30T12:20:58;15.45;;;9.88;;
40537;SDS011;27925;41.874;12.526;2023-01-30T12:26:23;12.32;;;8.43;;
40537;SDS011;27925;41.874;12.526;2023-01-30T12:31:29;11.98;;;7.13;;
40537;SDS011;27925;41.874;12.526;2023-01-30T12:34:00;13.18;;;8.07;;
40537;SDS011;27925;41.874;12.526;2023-01-30T12:55:25;12.60;;;8.55;;
40537;SDS011;27925;41.874;12.526;2023-01-30T13:03:48;12.70;;;8.07;;
40537;SDS011;27925;41.874;12.526;2023-01-30T13:06:54;14.60;;;8.88;;
40537;SDS011;27925;41.874;12.526;2023-01-30T13:17:42;12.63;;;7.57;;
40537;SDS011;27925;41.874;12.526;2023-01-30T13:26:20;11.50;;;6.97;;
40537;SDS011;27925;41.874;12.526;2023-01-30T13:28:58;10.77;;;6.63;;
40537;SDS011;27925;41.874;12.526;2023-01-30T13:31:30;9.82;;;6.15;;
40537;SDS011;27925;41.874;12.526;2023-01-30T13:36:35;7.20;;;4.78;;
40537;SDS011;27925;41.874;12.526;2023-01-30T13:39:14;8.05;;;5.22;;
40537;SDS011;27925;41.874;12.526;2023-01-30T13:41:47;13.48;;;6.13;;
40537;SDS011;27925;41.874;12.526;2023-01-30T13:44:26;9.02;;;4.85;;
40537;SDS011;27925;41.874;12.526;2023-01-30T13:46:55;10.40;;;5.28;;
40537;SDS011;27925;41.874;12.526;2023-01-30T13:49:39;8.02;;;5.38;;
40537;SDS011;27925;41.874;12.526;2023-01-30T13:52:33;8.90;;;5.47;;
40537;SDS011;27925;41.874;12.526;2023-01-30T13:58:11;10.52;;;6.38;;
40537;SDS011;27925;41.874;12.526;2023-01-30T14:00:52;12.90;;;5.57;;
40537;SDS011;27925;41.874;12.526;2023-01-30T14:08:19;8.68;;;4.97;;
40537;SDS011;27925;41.874;12.526;2023-01-30T14:10:47;9.60;;;4.90;;
40537;SDS011;27925;41.874;12.526;2023-01-30T14:13:14;10.75;;;5.05;;
40537;SDS011;27925;41.874;12.526;2023-01-30T14:15:51;9.30;;;5.50;;
40537;SDS011;27925;41.874;12.526;2023-01-30T14:23:40;12.85;;;5.00;;
40537;SDS011;27925;41.874;12.526;2023-01-30T14:26:50;8.38;;;5.03;;
40537;SDS011;27925;41.874;12.526;2023-01-30T14:32:05;9.57;;;4.82;;
40537;SDS011;27925;41.874;12.526;2023-01-30T14:40:01;10.77;;;4.55;;
40537;SDS011;27925;41.874;12.526;2023-01-30T14:54:07;9.25;;;4.68;;
40537;SDS011;27925;41.874;12.526;2023-01-30T15:07:18;10.43;;;5.13;;
40537;SDS011;27925;41.874;12.526;2023-01-30T15:09:56;10.30;;;6.47;;
40537;SDS011;27925;41.874;12.526;2023-01-30T15:20:27;10.80;;;5.95;;
40537;SDS011;27925;41.874;12.526;2023-01-30T15:23:23;10.70;;;5.80;;
40537;SDS011;27925;41.874;12.526;2023-01-30T15:31:34;10.07;;;5.80;;
40537;SDS011;27925;41.874;12.526;2023-01-30T15:34:00;12.02;;;7.30;;
40537;SDS011;27925;41.874;12.526;2023-01-30T15:36:30;12.80;;;7.68;;
40537;SDS011;27925;41.874;12.526;2023-01-30T15:38:58;14.05;;;8.13;;
40537;SDS011;27925;41.874;12.526;2023-01-30T15:41:40;12.13;;;7.75;;
40537;SDS011;27925;41.874;12.526;2023-01-30T15:47:21;12.93;;;8.45;;
40537;SDS011;27925;41.874;12.526;2023-01-30T15:50:03;13.80;;;8.57;;
40537;SDS011;27925;41.874;12.526;2023-01-30T15:52:37;14.55;;;8.70;;
40537;SDS011;27925;41.874;12.526;2023-01-30T15:55:13;13.77;;;8.25;;
40537;SDS011;27925;41.874;12.526;2023-01-30T15:57:47;12.40;;;8.00;;
40537;SDS011;27925;41.874;12.526;2023-01-30T16:00:29;13.38;;;7.88;;
40537;SDS011;27925;41.874;12.526;2023-01-30T16:02:57;14.70;;;8.82;;
40537;SDS011;27925;41.874;12.526;2023-01-30T16:05:26;14.25;;;7.90;;
40537;SDS011;27925;41.874;12.526;2023-01-30T16:07:53;14.73;;;8.25;;
40537;SDS011;27925;41.874;12.526;2023-01-30T16:12:48;13.40;;;8.60;;
40537;SDS011;27925;41.874;12.526;2023-01-30T16:15:16;14.23;;;9.10;;
40537;SDS011;27925;41.874;12.526;2023-01-30T16:20:41;14.07;;;8.20;;
40537;SDS011;27925;41.874;12.526;2023-01-30T16:23:20;14.40;;;8.85;;
40537;SDS011;27925;41.874;12.526;2023-01-30T16:25:53;16.40;;;9.95;;
40537;SDS011;27925;41.874;12.526;2023-01-30T16:28:22;16.63;;;9.57;;
40537;SDS011;27925;41.874;12.526;2023-01-30T16:31:00;13.23;;;8.32;;
40537;SDS011;27925;41.874;12.526;2023-01-30T16:33:29;14.68;;;8.45;;
40537;SDS011;27925;41.874;12.526;2023-01-30T16:36:00;15.75;;;9.05;;
40537;SDS011;27925;41.874;12.526;2023-01-30T16:38:30;16.88;;;10.23;;
40537;SDS011;27925;41.874;12.526;2023-01-30T16:40:59;14.98;;;9.90;;
40537;SDS011;27925;41.874;12.526;2023-01-30T16:43:25;12.15;;;8.50;;
40537;SDS011;27925;41.874;12.526;2023-01-30T16:50:45;15.15;;;9.65;;
40537;SDS011;27925;41.874;12.526;2023-01-30T16:53:13;15.38;;;9.73;;
40537;SDS011;27925;41.874;12.526;2023-01-30T16:56:05;16.33;;;9.75;;
40537;SDS011;27925;41.874;12.526;2023-01-30T16:58:34;16.92;;;10.52;;
40537;SDS011;27925;41.874;12.526;2023-01-30T17:01:02;17.65;;;10.35;;
40537;SDS011;27925;41.874;12.526;2023-01-30T17:03:30;15.55;;;10.07;;
40537;SDS011;27925;41.874;12.526;2023-01-30T17:06:05;14.75;;;10.48;;
40537;SDS011;27925;41.874;12.526;2023-01-30T17:14:15;17.00;;;10.02;;
40537;SDS011;27925;41.874;12.526;2023-01-30T17:16:45;13.55;;;9.63;;
40537;SDS011;27925;41.874;12.526;2023-01-30T17:19:12;13.38;;;9.13;;
40537;SDS011;27925;41.874;12.526;2023-01-30T17:24:14;16.05;;;10.70;;
40537;SDS011;27925;41.874;12.526;2023-01-30T17:26:42;14.68;;;10.55;;
40537;SDS011;27925;41.874;12.526;2023-01-30T17:29:11;14.55;;;10.32;;
40537;SDS011;27925;41.874;12.526;2023-01-30T17:31:39;14.70;;;9.95;;
40537;SDS011;27925;41.874;12.526;2023-01-30T17:34:15;14.45;;;9.63;;
40537;SDS011;27925;41.874;12.526;2023-01-30T17:36:42;16.13;;;10.52;;
40537;SDS011;27925;41.874;12.526;2023-01-30T17:39:12;16.02;;;10.50;;
40537;SDS011;27925;41.874;12.526;2023-01-30T17:41:39;17.95;;;10.25;;
40537;SDS011;27925;41.874;12.526;2023-01-30T17:44:07;16.35;;;10.90;;
40537;SDS011;27925;41.874;12.526;2023-01-30T17:49:14;22.10;;;13.73;;
40537;SDS011;27925;41.874;12.526;2023-01-30T17:51:47;18.00;;;11.45;;
40537;SDS011;27925;41.874;12.526;2023-01-30T17:54:14;15.32;;;11.05;;
40537;SDS011;27925;41.874;12.526;2023-01-30T17:56:40;16.30;;;11.32;;
40537;SDS011;27925;41.874;12.526;2023-01-30T17:59:16;18.10;;;12.02;;
40537;SDS011;27925;41.874;12.526;2023-01-30T18:01:44;19.40;;;12.98;;
40537;SDS011;27925;41.874;12.526;2023-01-30T18:04:11;20.05;;;13.07;;
40537;SDS011;27925;41.874;12.526;2023-01-30T18:06:39;20.67;;;13.05;;
40537;SDS011;27925;41.874;12.526;2023-01-30T18:09:08;21.98;;;13.10;;
40537;SDS011;27925;41.874;12.526;2023-01-30T18:11:39;22.00;;;11.07;;
40537;SDS011;27925;41.874;12.526;2023-01-30T18:14:05;16.27;;;11.10;;
40537;SDS011;27925;41.874;12.526;2023-01-30T18:16:31;16.33;;;11.30;;
40537;SDS011;27925;41.874;12.526;2023-01-30T18:18:57;21.95;;;12.48;;
40537;SDS011;27925;41.874;12.526;2023-01-30T18:21:27;15.15;;;10.40;;
40537;SDS011;27925;41.874;12.526;2023-01-30T18:23:53;18.45;;;10.25;;
40537;SDS011;27925;41.874;12.526;2023-01-30T18:26:18;15.35;;;11.35;;
40537;SDS011;27925;41.874;12.526;2023-01-30T18:28:44;17.77;;;11.30;;
40537;SDS011;27925;41.874;12.526;2023-01-30T18:31:10;15.20;;;10.48;;